Time;durP1;ratioP1;P1;durP2;ratioP2;P2;SDS_P1;SDS_P2;PMS_P1;PMS_P2;Temp;Humidity;BMP_temperature;BMP_pressure;BME280_temperature;BME280_humidity;BME280_pressure;Samples;Min_cycle;Max_cycle;Signal;HPM_P1;HPM_P2
2023/05/02 00:01:03;;;;;;;13.88;8.30;;;9.50;99.90;;;;;;5073283;28;20021;-83
2023/05/02 00:03:30;;;;;;;10.52;7.88;;;9.40;99.90;;;;;;5055704;28;20392;-83
2023/05/02 00:05:56;;;;;;;10.93;8.43;;;9.50;99.90;;;;;;5055443;28;20525;-83
2023/05/02 00:08:22;;;;;;;10.93;7.78;;;9.50;99.90;;;;;;5066990;28;20116;-83
2023/05/02 00:10:47;;;;;;;11.55;8.20;;;9.50;99.90;;;;;;5051524;28;20127;-83
2023/05/02 00:13:13;;;;;;;11.20;8.63;;;9.50;99.90;;;;;;5046767;28;20389;-83
2023/05/02 00:15:39;;;;;;;12.65;7.80;;;9.60;99.90;;;;;;5055716;28;20024;-83
2023/05/02 00:18:05;;;;;;;12.02;8.65;;;9.50;99.90;;;;;;5043531;28;20024;-83
2023/05/02 00:20:30;;;;;;;10.98;8.25;;;9.50;99.90;;;;;;5054753;28;20036;-83
2023/05/02 00:22:56;;;;;;;9.23;7.50;;;9.50;99.90;;;;;;5068673;28;20079;-83
2023/05/02 00:25:22;;;;;;;16.38;8.30;;;9.50;99.90;;;;;;5065641;28;20024;-82
2023/05/02 00:27:50;;;;;;;9.52;7.72;;;9.50;99.90;;;;;;5054070;28;20028;-82
2023/05/02 00:30:16;;;;;;;9.43;7.75;;;9.50;99.90;;;;;;5069721;28;20033;-83
2023/05/02 00:32:43;;;;;;;9.55;7.82;;;9.50;99.90;;;;;;5054731;28;20063;-83
2023/05/02 00:35:09;;;;;;;10.15;7.55;;;9.50;99.90;;;;;;5064926;28;20546;-83
2023/05/02 00:37:35;;;;;;;12.38;7.45;;;9.60;99.90;;;;;;5054113;28;20054;-82
2023/05/02 00:40:02;;;;;;;11.48;8.15;;;9.50;99.90;;;;;;5072314;28;20028;-83
2023/05/02 00:42:31;;;;;;;10.73;7.55;;;9.50;99.90;;;;;;5053955;28;20039;-83
2023/05/02 00:44:57;;;;;;;12.25;8.38;;;9.50;99.90;;;;;;5055134;28;20887;-83
2023/05/02 00:47:23;;;;;;;13.55;7.88;;;9.50;99.90;;;;;;5053261;28;20024;-83
2023/05/02 00:49:49;;;;;;;11.68;7.78;;;9.40;99.90;;;;;;5053279;28;20028;-83
2023/05/02 00:52:15;;;;;;;11.85;7.88;;;9.40;99.90;;;;;;5054138;28;20031;-83
2023/05/02 00:54:42;;;;;;;10.43;8.02;;;9.30;99.90;;;;;;5052064;28;20028;-83
2023/05/02 00:57:07;;;;;;;10.23;7.88;;;9.30;99.90;;;;;;5053248;28;20376;-82
2023/05/02 00:59:36;;;;;;;17.55;9.30;;;9.30;99.90;;;;;;5063299;28;20040;-82
2023/05/02 01:02:27;;;;;;;13.82;9.88;;;9.20;99.90;;;;;;5038730;28;20431;-83
2023/05/02 01:05:09;;;;;;;13.02;9.52;;;9.10;99.90;;;;;;5048457;28;20079;-83
2023/05/02 01:08:01;;;;;;;14.93;10.10;;;9.00;99.90;;;;;;5042248;28;20491;-83
2023/05/02 01:10:45;;;;;;;15.23;10.15;;;8.90;99.90;;;;;;5054912;28;20021;-83
2023/05/02 01:13:24;;;;;;;14.02;9.98;;;8.70;99.90;;;;;;5054956;28;20638;-83
2023/05/02 01:15:52;;;;;;;12.93;9.95;;;8.60;99.90;;;;;;5041657;28;20364;-83
2023/05/02 01:18:21;;;;;;;15.38;10.77;;;8.50;99.90;;;;;;5048252;28;20067;-83
2023/05/02 01:20:54;;;;;;;14.15;10.50;;;8.40;99.90;;;;;;5052243;28;20037;-83
2023/05/02 01:23:46;;;;;;;15.98;11.65;;;8.30;99.90;;;;;;5051587;28;20039;-83
2023/05/02 01:26:33;;;;;;;15.05;10.93;;;8.30;99.90;;;;;;5035045;28;20052;-83
2023/05/02 01:29:07;;;;;;;15.38;11.98;;;8.20;99.90;;;;;;5054349;28;20036;-82
2023/05/02 01:31:39;;;;;;;15.43;11.60;;;8.20;99.90;;;;;;5050994;28;20029;-82
2023/05/02 01:34:11;;;;;;;17.48;12.40;;;8.10;99.90;;;;;;5063296;28;20040;-83
2023/05/02 01:36:42;;;;;;;17.38;11.77;;;8.10;99.90;;;;;;5049367;28;20611;-83
2023/05/02 01:39:10;;;;;;;17.92;12.43;;;8.00;99.90;;;;;;5051748;28;20071;-83
2023/05/02 01:41:37;;;;;;;16.83;12.07;;;7.90;99.90;;;;;;5054565;28;20507;-83
2023/05/02 01:44:06;;;;;;;18.90;13.20;;;7.90;99.90;;;;;;5054684;28;20357;-83
2023/05/02 01:46:35;;;;;;;17.90;12.40;;;7.90;99.90;;;;;;5041932;28;20115;-83
2023/05/02 01:49:06;;;;;;;23.45;12.07;;;7.80;99.90;;;;;;5054545;28;20028;-83
2023/05/02 01:51:34;;;;;;;17.85;12.23;;;7.80;99.90;;;;;;5063363;28;20503;-83
2023/05/02 01:54:06;;;;;;;21.20;13.32;;;7.70;99.90;;;;;;5071001;28;20033;-82
2023/05/02 01:56:35;;;;;;;18.77;13.50;;;7.70;99.90;;;;;;5066676;28;20028;-82
2023/05/02 01:59:03;;;;;;;23.25;13.63;;;7.60;99.90;;;;;;5053869;28;20148;-82
2023/05/02 02:01:29;;;;;;;18.15;13.35;;;7.60;99.90;;;;;;5052794;28;20040;-83
2023/05/02 02:03:57;;;;;;;22.38;15.25;;;7.70;99.90;;;;;;5055989;28;20090;-83
2023/05/02 02:06:24;;;;;;;23.25;14.52;;;7.70;99.90;;;;;;5054578;28;20044;-83
2023/05/02 02:08:49;;;;;;;21.42;14.30;;;7.70;99.90;;;;;;5054719;28;20025;-82
2023/05/02 02:11:20;;;;;;;22.23;15.32;;;7.70;99.90;;;;;;5058144;28;20119;-82
2023/05/02 02:14:13;;;;;;;24.83;15.05;;;7.70;99.90;;;;;;5057140;28;20021;-82
2023/05/02 02:16:41;;;;;;;26.98;15.63;;;7.80;99.90;;;;;;5051975;28;20037;-82
2023/05/02 02:19:11;;;;;;;25.20;17.02;;;7.90;99.90;;;;;;5057743;28;20024;-83
2023/05/02 02:21:39;;;;;;;22.40;15.90;;;7.90;99.90;;;;;;5055014;28;20051;-83
2023/05/02 02:24:06;;;;;;;20.63;15.10;;;7.90;99.90;;;;;;5057099;28;20480;-83
2023/05/02 02:26:33;;;;;;;24.65;15.63;;;7.90;99.90;;;;;;5073665;28;20013;-81
2023/05/02 02:29:00;;;;;;;26.60;15.43;;;7.80;99.90;;;;;;5074250;28;20656;-83
2023/05/02 02:31:37;;;;;;;21.60;15.20;;;7.80;99.90;;;;;;5057320;28;20102;-83
2023/05/02 02:34:03;;;;;;;22.90;14.88;;;7.80;99.90;;;;;;5057530;28;20052;-83
2023/05/02 02:36:55;;;;;;;24.55;14.65;;;7.90;99.90;;;;;;5057233;28;20028;-82
2023/05/02 02:39:29;;;;;;;23.25;15.98;;;7.90;99.90;;;;;;5057012;28;20024;-83
2023/05/02 02:42:03;;;;;;;21.88;15.20;;;7.80;99.90;;;;;;5057427;28;20033;-83
2023/05/02 02:44:47;;;;;;;26.20;15.95;;;7.80;99.90;;;;;;5052749;28;20025;-82
2023/05/02 02:47:32;;;;;;;24.45;16.52;;;7.70;99.90;;;;;;5067576;28;20071;-83
2023/05/02 02:50:12;;;;;;;23.65;16.40;;;7.60;99.90;;;;;;5057365;28;20098;-82
2023/05/02 02:52:47;;;;;;;24.38;16.15;;;7.60;99.90;;;;;;5052220;28;20032;-82
2023/05/02 02:55:28;;;;;;;24.90;16.67;;;7.40;99.90;;;;;;5050257;28;20043;-83
2023/05/02 02:58:20;;;;;;;29.75;17.70;;;7.30;99.90;;;;;;5062840;28;20077;-82
2023/05/02 03:00:46;;;;;;;;;;;7.20;99.90;;;;;;5050515;28;20040;-82
2023/05/02 03:03:14;;;;;;;30.27;18.45;;;7.20;99.90;;;;;;5049331;28;20315;-83
2023/05/02 03:05:42;;;;;;;28.00;17.95;;;7.20;99.90;;;;;;5057143;28;20775;-82
2023/05/02 03:08:08;;;;;;;27.70;18.65;;;7.20;99.90;;;;;;5058510;28;20046;-83
2023/05/02 03:10:34;;;;;;;31.30;20.40;;;7.20;99.90;;;;;;5073641;28;20028;-83
2023/05/02 03:13:00;;;;;;;35.25;22.77;;;7.20;99.90;;;;;;5050168;28;20032;-82
2023/05/02 03:16:04;;;;;;;38.30;24.20;;;7.20;99.90;;;;;;5056496;28;20025;-82
2023/05/02 03:18:30;;;;;;;43.03;24.58;;;7.20;99.90;;;;;;5066017;28;20044;-83
2023/05/02 03:20:56;;;;;;;36.72;21.95;;;7.20;99.90;;;;;;5054298;28;20033;-83
2023/05/02 03:23:22;;;;;;;46.40;25.77;;;7.20;99.90;;;;;;5061015;28;20380;-83
2023/05/02 03:25:49;;;;;;;44.10;27.40;;;7.30;99.90;;;;;;5054533;28;20032;-82
2023/05/02 03:28:20;;;;;;;42.35;25.88;;;7.30;99.90;;;;;;5073142;28;20805;-83
2023/05/02 03:30:48;;;;;;;55.53;26.80;;;7.30;99.90;;;;;;5074636;28;20025;-82
2023/05/02 03:33:13;;;;;;;45.38;27.33;;;7.30;99.90;;;;;;5066915;28;20055;-83
2023/05/02 03:35:42;;;;;;;46.05;26.83;;;7.30;99.90;;;;;;5056513;28;20507;-82
2023/05/02 03:38:08;;;;;;;43.00;27.83;;;7.50;99.90;;;;;;5046060;28;20083;-83
2023/05/02 03:40:35;;;;;;;49.58;28.33;;;7.40;99.90;;;;;;5048434;28;20376;-82
2023/05/02 03:43:01;;;;;;;44.83;28.42;;;7.40;99.90;;;;;;5054195;28;20028;-82
2023/05/02 03:45:30;;;;;;;46.00;27.33;;;7.40;99.90;;;;;;5049589;28;20051;-83
2023/05/02 03:47:56;;;;;;;41.88;26.80;;;7.40;99.90;;;;;;5055029;28;20621;-82
2023/05/02 03:50:22;;;;;;;45.17;26.83;;;7.40;99.90;;;;;;5049988;28;20024;-82
2023/05/02 03:52:50;;;;;;;45.58;27.00;;;7.20;99.90;;;;;;5039795;28;20397;-82
2023/05/02 03:55:21;;;;;;;50.20;27.90;;;7.10;99.90;;;;;;5050053;28;20492;-83
2023/05/02 03:57:48;;;;;;;48.63;28.13;;;7.00;99.90;;;;;;5052559;28;20028;-83
2023/05/02 04:00:14;;;;;;;52.70;27.88;;;6.90;99.90;;;;;;5055184;28;20051;-82
2023/05/02 04:02:46;;;;;;;48.60;28.73;;;7.00;99.90;;;;;;5060894;28;20029;-83
2023/05/02 04:05:16;;;;;;;47.13;29.08;;;6.90;99.90;;;;;;5063167;28;20115;-85
2023/05/02 04:07:42;;;;;;;47.00;28.50;;;6.90;99.90;;;;;;5052282;28;20048;-85
2023/05/02 04:10:15;;;;;;;47.78;29.05;;;6.80;99.90;;;;;;5053385;28;20033;-86
2023/05/02 04:12:42;;;;;;;47.05;26.67;;;6.70;99.90;;;;;;5069000;28;20151;-85
2023/05/02 04:15:10;;;;;;;52.85;29.88;;;6.60;99.90;;;;;;5053797;28;20044;-85
2023/05/02 04:17:36;;;;;;;46.58;28.17;;;6.70;99.90;;;;;;5050676;28;20055;-85
2023/05/02 04:20:03;;;;;;;43.72;25.55;;;6.60;99.90;;;;;;5072626;28;20028;-85
2023/05/02 04:22:31;;;;;;;40.85;24.88;;;6.60;99.90;;;;;;5056390;28;20387;-85
2023/05/02 04:25:01;;;;;;;;;;;6.50;99.90;;;;;;5055428;28;20059;-85
2023/05/02 04:27:29;;;;;;;54.70;27.33;;;6.70;99.90;;;;;;5052610;28;20026;-85
2023/05/02 04:29:55;;;;;;;50.55;28.17;;;6.70;99.90;;;;;;5069127;28;20042;-85
2023/05/02 04:32:22;;;;;;;55.67;30.92;;;6.80;99.90;;;;;;5046171;28;20519;-85
2023/05/02 04:34:48;;;;;;;54.08;30.85;;;6.90;99.90;;;;;;5043628;28;20115;-85
2023/05/02 04:37:15;;;;;;;55.67;33.70;;;7.00;99.90;;;;;;5055447;28;20035;-85
2023/05/02 04:39:43;;;;;;;62.38;34.20;;;7.20;99.90;;;;;;5056390;28;20028;-85
2023/05/02 04:42:15;;;;;;;56.75;32.97;;;7.30;99.90;;;;;;5056797;28;20371;-85
2023/05/02 04:44:59;;;;;;;64.00;36.35;;;7.50;99.90;;;;;;5055762;28;20032;-85
2023/05/02 04:47:25;;;;;;;66.32;34.95;;;7.70;99.90;;;;;;5072421;28;20020;-85
2023/05/02 04:49:50;;;;;;;54.60;34.03;;;7.90;99.90;;;;;;5055799;28;20021;-86
2023/05/02 04:52:17;;;;;;;57.60;33.53;;;8.10;99.90;;;;;;5054972;28;20647;-85
2023/05/02 04:54:43;;;;;;;47.58;30.83;;;8.20;99.90;;;;;;5051911;28;20029;-84
2023/05/02 04:57:10;;;;;;;50.85;30.42;;;8.30;99.90;;;;;;5053308;28;20039;-85
2023/05/02 04:59:38;;;;;;;51.40;30.92;;;8.40;99.90;;;;;;5046212;28;20029;-85
2023/05/02 05:02:06;;;;;;;48.63;29.98;;;8.50;99.90;;;;;;5052450;28;20078;-84
2023/05/02 05:04:32;;;;;;;50.60;28.50;;;8.50;99.90;;;;;;5049165;28;20506;-85
2023/05/02 05:07:00;;;;;;;47.15;28.83;;;8.60;99.90;;;;;;5054417;28;20494;-85
2023/05/02 05:09:27;;;;;;;46.47;28.95;;;8.50;99.90;;;;;;5056069;28;20062;-84
2023/05/02 05:11:53;;;;;;;44.20;27.80;;;8.60;99.90;;;;;;5053696;28;20032;-85
2023/05/02 05:14:19;;;;;;;39.58;25.80;;;8.70;99.90;;;;;;5056286;28;20048;-85
2023/05/02 05:16:49;;;;;;;40.65;25.33;;;8.70;99.90;;;;;;5072616;28;20029;-85
2023/05/02 05:19:16;;;;;;;37.65;24.25;;;8.80;99.90;;;;;;5055727;28;20115;-85
2023/05/02 05:21:41;;;;;;;36.63;23.15;;;8.80;99.90;;;;;;5072214;28;20107;-85
2023/05/02 05:24:08;;;;;;;36.33;22.73;;;8.90;99.90;;;;;;5055119;28;20754;-85
2023/05/02 05:26:34;;;;;;;35.92;22.77;;;9.00;99.90;;;;;;5052592;28;20071;-84
2023/05/02 05:29:01;;;;;;;40.20;26.27;;;9.00;99.90;;;;;;5053487;28;20032;-85
2023/05/02 05:31:32;;;;;;;42.25;25.00;;;9.10;99.90;;;;;;5056772;28;20025;-85
2023/05/02 05:34:00;;;;;;;34.88;22.88;;;9.10;99.90;;;;;;5064773;28;20116;-85
2023/05/02 05:36:26;;;;;;;35.67;22.60;;;9.20;99.90;;;;;;5057479;28;20391;-85
2023/05/02 05:38:52;;;;;;;37.75;22.55;;;9.20;99.90;;;;;;5059630;28;20471;-85
2023/05/02 05:41:18;;;;;;;42.63;26.63;;;9.30;99.90;;;;;;5059036;28;20021;-85
2023/05/02 05:43:48;;;;;;;51.78;29.40;;;9.40;99.90;;;;;;5055842;28;20400;-85
2023/05/02 05:46:14;;;;;;;38.05;25.55;;;9.50;99.90;;;;;;5066361;28;20107;-85
2023/05/02 05:48:40;;;;;;;40.78;25.23;;;9.50;99.90;;;;;;5053551;28;20876;-84
2023/05/02 05:51:06;;;;;;;36.97;24.20;;;9.60;99.90;;;;;;5057945;28;20541;-85
2023/05/02 05:53:32;;;;;;;37.45;24.63;;;9.60;99.90;;;;;;5075250;28;20063;-85
2023/05/02 05:56:09;;;;;;;43.55;26.85;;;9.60;99.90;;;;;;5059331;28;20799;-85
2023/05/02 05:58:36;;;;;;;42.95;26.83;;;9.60;99.90;;;;;;5055601;28;20037;-85
2023/05/02 06:01:02;;;;;;;39.65;26.52;;;9.70;99.90;;;;;;5054923;28;20042;-84
2023/05/02 06:03:28;;;;;;;37.80;23.83;;;9.80;99.90;;;;;;5051950;28;20024;-85
2023/05/02 06:05:54;;;;;;;34.70;23.50;;;9.80;99.90;;;;;;5059133;28;20024;-85
2023/05/02 06:08:20;;;;;;;38.17;24.25;;;9.90;99.90;;;;;;5048338;28;20021;-84
2023/05/02 06:11:01;;;;;;;39.05;24.27;;;9.80;99.90;;;;;;5068931;28;20032;-85
2023/05/02 06:13:27;;;;;;;43.58;23.80;;;9.80;99.90;;;;;;5041405;28;20065;-85
2023/05/02 06:15:52;;;;;;;39.70;24.13;;;9.80;99.90;;;;;;5055040;28;20055;-84
2023/05/02 06:18:18;;;;;;;38.05;23.73;;;9.80;99.90;;;;;;5056098;28;20031;-85
2023/05/02 06:20:44;;;;;;;38.58;23.20;;;9.80;99.90;;;;;;5070550;28;20506;-85
2023/05/02 06:23:09;;;;;;;40.28;23.88;;;9.90;99.90;;;;;;5049221;28;20595;-85
2023/05/02 06:25:38;;;;;;;41.88;23.13;;;9.90;99.90;;;;;;5053480;28;20024;-85
2023/05/02 06:28:04;;;;;;;41.08;24.10;;;9.90;99.90;;;;;;5052474;28;20028;-85
2023/05/02 06:30:30;;;;;;;41.38;24.05;;;9.90;99.90;;;;;;5057778;28;20108;-85
2023/05/02 06:32:56;;;;;;;41.03;24.27;;;10.00;99.90;;;;;;5057581;28;20159;-84
2023/05/02 06:35:22;;;;;;;41.78;24.58;;;10.20;99.90;;;;;;5072360;28;20495;-85
2023/05/02 06:37:48;;;;;;;41.22;26.08;;;10.40;99.90;;;;;;5050717;28;20033;-85
2023/05/02 06:40:14;;;;;;;39.97;23.83;;;10.70;99.90;;;;;;5060852;28;20021;-84
2023/05/02 06:42:39;;;;;;;38.95;24.17;;;10.90;99.90;;;;;;5047168;28;20478;-85
2023/05/02 06:45:06;;;;;;;39.33;25.17;;;11.00;99.90;;;;;;5049319;28;20032;-85
2023/05/02 06:47:32;;;;;;;47.60;26.40;;;11.00;99.90;;;;;;5051545;28;20758;-85
2023/05/02 06:49:57;;;;;;;44.40;24.67;;;11.20;99.90;;;;;;5043221;28;20033;-84
2023/05/02 06:52:23;;;;;;;40.53;25.38;;;11.30;99.90;;;;;;5053243;28;20078;-85
2023/05/02 06:54:49;;;;;;;42.60;26.42;;;11.30;99.90;;;;;;5059884;28;20025;-85
2023/05/02 06:57:15;;;;;;;37.33;24.48;;;11.40;99.90;;;;;;5054445;28;20035;-85
2023/05/02 06:59:41;;;;;;;42.33;25.15;;;11.50;99.90;;;;;;5051019;28;20200;-85
2023/05/02 07:02:07;;;;;;;40.95;23.77;;;11.40;99.90;;;;;;5056256;28;20552;-84
2023/05/02 07:04:36;;;;;;;37.13;24.40;;;11.40;99.90;;;;;;5066869;28;20481;-85
2023/05/02 07:07:02;;;;;;;44.22;25.65;;;11.30;99.90;;;;;;5045790;28;20013;-85
2023/05/02 07:09:28;;;;;;;43.13;25.17;;;11.20;99.90;;;;;;5053875;28;20029;-86
2023/05/02 07:11:54;;;;;;;39.90;24.67;;;11.10;99.90;;;;;;5069219;28;20025;-85
2023/05/02 07:14:20;;;;;;;37.42;24.83;;;11.10;99.90;;;;;;5056295;28;20027;-85
2023/05/02 07:16:46;;;;;;;39.35;26.63;;;11.40;99.90;;;;;;5070609;28;20379;-85
2023/05/02 07:19:12;;;;;;;43.38;27.13;;;11.60;99.90;;;;;;5060481;28;20033;-86
2023/05/02 07:21:37;;;;;;;39.25;25.40;;;12.10;99.90;;;;;;5048615;28;20485;-84
2023/05/02 07:24:03;;;;;;;37.28;25.17;;;12.50;99.90;;;;;;5051096;28;20029;-85
2023/05/02 07:26:32;;;;;;;39.53;25.48;;;12.90;99.90;;;;;;5054273;28;20025;-85
2023/05/02 07:28:58;;;;;;;41.00;26.05;;;13.10;99.90;;;;;;5054655;28;20021;-85
2023/05/02 07:31:24;;;;;;;38.38;24.42;;;13.60;99.90;;;;;;5055377;28;20105;-85
2023/05/02 07:33:50;;;;;;;45.90;26.90;;;13.80;99.90;;;;;;5048440;28;20108;-85
2023/05/02 07:36:16;;;;;;;36.90;24.33;;;13.90;99.90;;;;;;5056294;28;20078;-86
2023/05/02 07:38:42;;;;;;;41.40;27.48;;;13.90;99.90;;;;;;5067931;28;20071;-85
2023/05/02 07:41:08;;;;;;;43.05;27.92;;;13.60;99.90;;;;;;5052067;28;20021;-85
2023/05/02 07:43:34;;;;;;;37.97;25.42;;;13.30;99.90;;;;;;5064795;28;20107;-85
2023/05/02 07:46:04;;;;;;;39.78;27.13;;;13.20;99.90;;;;;;5054888;28;20025;-86
2023/05/02 07:48:30;;;;;;;38.33;25.90;;;12.90;99.90;;;;;;5057627;28;20032;-85
2023/05/02 07:51:04;;;;;;;43.78;27.88;;;12.70;99.90;;;;;;5064182;28;20032;-85
2023/05/02 07:53:29;;;;;;;42.60;26.70;;;12.70;99.90;;;;;;5051309;28;20032;-85
2023/05/02 07:55:55;;;;;;;37.45;26.38;;;12.90;99.90;;;;;;5052850;28;20033;-85
2023/05/02 07:58:21;;;;;;;41.20;27.48;;;13.50;99.90;;;;;;5069704;28;20675;-85
2023/05/02 08:00:47;;;;;;;45.85;29.33;;;13.80;99.90;;;;;;5049134;28;20028;-85
2023/05/02 08:03:13;;;;;;;43.85;29.85;;;13.70;99.90;;;;;;5052757;28;20384;-85
2023/05/02 08:05:39;;;;;;;45.78;27.67;;;13.40;99.90;;;;;;5039147;28;20028;-85
2023/05/02 08:08:05;;;;;;;47.67;30.13;;;13.60;99.90;;;;;;5064377;28;20384;-86
2023/05/02 08:10:31;;;;;;;45.45;28.85;;;13.50;99.90;;;;;;5047887;28;20055;-85
2023/05/02 08:12:56;;;;;;;42.90;26.92;;;13.50;99.90;;;;;;5053493;28;20033;-85
2023/05/02 08:15:25;;;;;;;39.70;26.70;;;13.80;99.90;;;;;;5053263;28;20055;-85
2023/05/02 08:17:51;;;;;;;41.65;27.08;;;14.10;99.90;;;;;;5065289;28;20029;-85
2023/05/02 08:20:17;;;;;;;41.38;27.20;;;13.90;99.90;;;;;;5061650;28;20380;-85
2023/05/02 08:22:42;;;;;;;49.40;29.77;;;14.20;99.90;;;;;;5061881;28;20035;-86
2023/05/02 08:25:08;;;;;;;44.22;29.02;;;14.40;99.90;;;;;;5043666;28;20028;-85
2023/05/02 08:27:34;;;;;;;40.97;25.77;;;14.40;99.90;;;;;;5054744;28;20052;-85
2023/05/02 08:30:00;;;;;;;42.55;27.15;;;14.70;99.90;;;;;;5051667;28;20115;-85
2023/05/02 08:32:26;;;;;;;43.03;28.15;;;15.30;99.90;;;;;;5037365;28;20032;-84
2023/05/02 08:34:57;;;;;;;43.33;27.27;;;14.60;99.90;;;;;;5071702;28;20383;-85
2023/05/02 08:37:23;;;;;;;46.88;28.70;;;14.30;99.90;;;;;;5053512;28;20032;-85
2023/05/02 08:39:49;;;;;;;44.17;29.02;;;13.80;99.90;;;;;;5050418;28;20025;-84
2023/05/02 08:42:15;;;;;;;38.85;25.67;;;13.80;99.90;;;;;;5043902;28;20040;-85
2023/05/02 08:44:40;;;;;;;39.85;25.00;;;14.70;99.90;;;;;;5053560;28;20051;-86
2023/05/02 08:47:09;;;;;;;39.75;27.10;;;15.50;99.90;;;;;;5052735;28;20103;-84
2023/05/02 08:49:37;;;;;;;39.00;25.52;;;15.80;99.90;;;;;;5055710;28;20027;-84
2023/05/02 08:52:05;;;;;;;37.08;25.15;;;16.00;99.90;;;;;;5064336;28;20024;-85
2023/05/02 08:54:31;;;;;;;36.08;23.75;;;16.20;99.90;;;;;;5051584;28;20032;-85
2023/05/02 08:56:58;;;;;;;34.22;22.65;;;17.00;99.90;;;;;;5043511;28;20055;-85
2023/05/02 08:59:24;;;;;;;34.25;24.55;;;17.80;99.90;;;;;;5050705;28;20067;-85
2023/05/02 09:01:58;;;;;;;29.00;21.75;;;18.60;99.90;;;;;;5046780;28;20032;-85
2023/05/02 09:04:29;;;;;;;34.70;22.10;;;19.50;99.90;;;;;;5052812;28;20028;-85
2023/05/02 09:06:55;;;;;;;30.60;22.13;;;20.40;99.90;;;;;;5063109;28;20031;-85
2023/05/02 09:09:21;;;;;;;29.42;21.83;;;21.10;99.90;;;;;;5055607;28;20024;-86
2023/05/02 09:11:47;;;;;;;24.98;18.45;;;21.10;99.90;;;;;;5055597;28;20383;-86
2023/05/02 09:14:14;;;;;;;26.45;19.83;;;21.90;99.70;;;;;;5055660;28;20528;-85
2023/05/02 09:16:40;;;;;;;28.80;19.58;;;22.90;95.30;;;;;;5054969;28;20107;-86
2023/05/02 09:19:06;;;;;;;26.23;20.00;;;22.90;93.90;;;;;;5055380;28;20117;-86
2023/05/02 09:21:38;;;;;;;26.33;19.42;;;21.90;94.10;;;;;;5055305;28;20032;-86
2023/05/02 09:24:19;;;;;;;27.40;19.60;;;20.60;95.30;;;;;;5055242;28;20165;-86
2023/05/02 09:27:03;;;;;;;28.97;19.30;;;20.90;95.80;;;;;;5055056;28;20032;-86
2023/05/02 09:29:34;;;;;;;26.38;19.90;;;20.80;98.80;;;;;;5055493;28;20376;-85
2023/05/02 09:32:04;;;;;;;33.70;21.45;;;21.10;97.70;;;;;;5055050;28;20121;-85
2023/05/02 09:34:30;;;;;;;32.53;22.42;;;19.70;99.80;;;;;;5070744;28;20024;-85
2023/05/02 09:36:57;;;;;;;30.42;22.73;;;18.30;99.90;;;;;;5055282;28;20032;-84
2023/05/02 09:39:23;;;;;;;31.05;22.27;;;17.00;99.90;;;;;;5050316;28;20036;-87
2023/05/02 09:41:50;;;;;;;30.08;21.20;;;16.30;99.90;;;;;;5049827;28;20043;-85
2023/05/02 09:44:17;;;;;;;30.73;21.45;;;15.90;99.90;;;;;;5052455;28;20024;-85
2023/05/02 09:46:49;;;;;;;34.42;22.38;;;15.70;99.90;;;;;;5063412;28;20024;-85
2023/05/02 09:49:18;;;;;;;34.90;20.63;;;15.70;99.90;;;;;;5055012;28;20464;-84
2023/05/02 09:51:47;;;;;;;30.38;20.95;;;16.00;99.90;;;;;;5051740;28;20039;-85
2023/05/02 09:54:13;;;;;;;37.92;22.17;;;15.40;99.90;;;;;;5063710;28;20033;-85
2023/05/02 09:56:57;;;;;;;33.28;22.98;;;14.90;99.90;;;;;;5063160;28;20107;-84
2023/05/02 09:59:24;;;;;;;33.90;19.55;;;14.70;99.90;;;;;;5072037;28;20055;-84
2023/05/02 10:01:58;;;;;;;26.98;18.20;;;14.50;99.90;;;;;;5042286;28;20083;-84
2023/05/02 10:04:25;;;;;;;31.65;17.65;;;14.20;99.90;;;;;;5067897;28;20025;-85
2023/05/02 10:06:52;;;;;;;27.08;17.88;;;14.20;99.90;;;;;;5066317;28;20435;-85
2023/05/02 10:09:21;;;;;;;25.65;16.85;;;14.20;99.90;;;;;;5053195;28;20127;-85
2023/05/02 10:11:55;;;;;;;27.00;16.45;;;14.20;99.90;;;;;;5051265;28;20445;-84
2023/05/02 10:14:22;;;;;;;30.38;17.75;;;14.10;99.90;;;;;;5061014;28;20124;-85
2023/05/02 10:17:08;;;;;;;28.33;16.77;;;13.90;99.90;;;;;;5073005;28;20375;-85
2023/05/02 10:19:59;;;;;;;25.10;16.58;;;13.80;99.90;;;;;;5055193;28;20033;-85
2023/05/02 10:22:26;;;;;;;28.27;18.33;;;13.90;99.90;;;;;;5056630;28;20036;-85
2023/05/02 10:24:52;;;;;;;32.97;20.83;;;13.70;99.90;;;;;;5069417;28;20028;-85
2023/05/02 10:27:18;;;;;;;35.58;22.55;;;13.40;99.90;;;;;;5067100;28;20036;-85
2023/05/02 10:29:45;;;;;;;40.90;24.38;;;13.30;99.90;;;;;;5046553;28;20024;-85
2023/05/02 10:32:13;;;;;;;41.42;26.38;;;13.40;99.90;;;;;;5048000;28;20545;-85
2023/05/02 10:34:41;;;;;;;39.70;24.35;;;13.70;99.90;;;;;;5072434;28;20452;-84
2023/05/02 10:37:07;;;;;;;41.92;26.02;;;14.10;99.90;;;;;;5051624;28;20073;-85
2023/05/02 10:39:33;;;;;;;39.22;25.20;;;14.40;99.90;;;;;;5071446;28;20029;-84
2023/05/02 10:42:02;;;;;;;43.45;26.95;;;14.70;99.90;;;;;;5050622;28;20040;-85
2023/05/02 10:44:38;;;;;;;36.22;23.20;;;15.70;99.90;;;;;;5071097;28;20089;-85
2023/05/02 10:47:25;;;;;;;39.47;24.90;;;16.80;99.90;;;;;;5070114;28;20021;-85
2023/05/02 10:49:59;;;;;;;40.13;24.60;;;17.40;99.90;;;;;;5043050;28;20036;-85
2023/05/02 10:52:36;;;;;;;33.63;21.25;;;17.70;99.90;;;;;;5059034;28;20036;-86
2023/05/02 10:55:22;;;;;;;28.98;19.75;;;17.40;99.90;;;;;;5054069;28;20115;-86
2023/05/02 10:58:20;;;;;;;27.83;18.92;;;17.50;99.90;;;;;;5045497;28;20837;-85
2023/05/02 11:00:46;;;;;;;21.70;16.17;;;17.90;99.90;;;;;;5050892;28;20029;-86
2023/05/02 11:03:11;;;;;;;23.23;16.70;;;18.30;99.90;;;;;;5060375;28;20024;-86
2023/05/02 11:06:05;;;;;;;21.85;15.32;;;18.30;99.90;;;;;;5051608;28;20032;-86
2023/05/02 11:08:31;;;;;;;22.17;16.02;;;19.00;99.90;;;;;;5067078;28;20024;-85
2023/05/02 11:10:56;;;;;;;23.63;17.25;;;18.80;99.90;;;;;;5049069;28;20036;-86
2023/05/02 11:13:55;;;;;;;21.45;16.13;;;18.50;99.90;;;;;;5052047;28;20025;-85
2023/05/02 11:16:20;;;;;;;25.65;18.15;;;18.50;99.90;;;;;;5030002;28;20045;-85
2023/05/02 11:19:00;;;;;;;23.38;17.60;;;17.90;99.90;;;;;;5054236;28;20032;-85
2023/05/02 11:21:31;;;;;;;24.75;17.58;;;17.90;99.90;;;;;;5053448;28;20434;-85
2023/05/02 11:24:34;;;;;;;24.20;18.45;;;17.30;99.90;;;;;;5053296;28;20380;-85
2023/05/02 11:27:28;;;;;;;28.48;18.95;;;16.90;99.90;;;;;;5070829;28;20037;-85
2023/05/02 11:29:58;;;;;;;29.38;19.17;;;18.10;99.90;;;;;;5066478;28;20035;-85
2023/05/02 11:32:45;;;;;;;30.27;19.92;;;19.00;99.90;;;;;;5058434;28;20029;-85
2023/05/02 11:35:21;;;;;;;26.25;17.08;;;18.70;99.90;;;;;;5055134;28;20025;-85
2023/05/02 11:37:59;;;;;;;27.67;19.00;;;18.30;99.90;;;;;;5062008;28;20064;-85
2023/05/02 11:40:26;;;;;;;27.98;18.58;;;17.70;99.90;;;;;;5062600;28;20119;-85
2023/05/02 11:42:52;;;;;;;30.02;19.95;;;16.60;99.90;;;;;;5053736;28;20475;-85
2023/05/02 11:45:38;;;;;;;27.73;18.90;;;15.60;99.90;;;;;;5062608;28;20495;-84
2023/05/02 11:48:06;;;;;;;28.08;17.92;;;15.30;99.90;;;;;;5060377;28;20021;-85
2023/05/02 11:50:46;;;;;;;32.38;18.70;;;15.20;99.90;;;;;;5053393;28;20028;-85
2023/05/02 11:53:17;;;;;;;29.83;18.23;;;15.40;99.90;;;;;;5068680;28;20494;-85
2023/05/02 11:55:50;;;;;;;28.50;17.75;;;15.40;99.90;;;;;;5056742;28;20066;-85
2023/05/02 11:58:26;;;;;;;27.55;16.98;;;15.30;99.90;;;;;;5052757;28;20041;-84
2023/05/02 12:01:21;;;;;;;;;;;;;;;;;;;;;
2023/05/02 12:04:06;;;;;;;20.52;13.73;;;15.40;99.90;;;;;;5059786;28;20051;-85
2023/05/02 12:06:34;;;;;;;27.77;16.67;;;15.60;99.90;;;;;;5054978;28;20115;-85
2023/05/02 12:09:26;;;;;;;24.00;16.15;;;15.80;99.90;;;;;;5047878;28;20068;-85
2023/05/02 12:12:12;;;;;;;24.42;15.38;;;16.30;99.90;;;;;;5066047;28;20060;-85
2023/05/02 12:14:40;;;;;;;21.73;13.20;;;17.40;99.90;;;;;;5064180;28;20024;-85
2023/05/02 12:17:10;;;;;;;25.52;16.63;;;17.90;99.90;;;;;;5056246;28;20468;-84
2023/05/02 12:19:56;;;;;;;22.95;15.90;;;17.20;99.90;;;;;;5057409;28;20059;-85
2023/05/02 12:22:27;;;;;;;35.15;20.77;;;16.20;99.90;;;;;;5043512;28;20032;-85
2023/05/02 12:25:37;;;;;;;30.38;19.02;;;15.40;99.90;;;;;;4996612;28;20045;-85
2023/05/02 12:29:01;;;;;;;32.30;18.60;;;15.10;99.90;;;;;;4993154;28;20038;-85
2023/05/02 12:31:38;;;;;;;39.85;22.02;;;15.00;99.90;;;;;;5007942;28;20041;-84
2023/05/02 12:34:06;;;;;;;38.20;21.90;;;14.80;99.90;;;;;;5052208;28;20510;-85
2023/05/02 12:36:45;;;;;;;35.65;21.85;;;15.00;99.90;;;;;;5053226;28;20028;-85
2023/05/02 12:39:13;;;;;;;34.33;21.40;;;14.90;99.90;;;;;;5047737;28;20020;-85
2023/05/02 12:41:44;;;;;;;38.28;22.35;;;14.70;99.90;;;;;;5054765;28;20086;-85
2023/05/02 12:44:12;;;;;;;35.17;21.77;;;14.70;99.90;;;;;;5053987;28;20116;-85
2023/05/02 12:46:58;;;;;;;42.42;23.40;;;14.80;99.90;;;;;;5054568;28;20040;-87
2023/05/02 12:52:58;;;;;;;54.15;25.15;;;14.90;99.90;;;;;;5064054;28;20075;-85
2023/05/02 12:55:26;;;;;;;29.77;18.15;;;15.40;99.90;;;;;;5051316;28;20056;-85